Eubank, KY

2:27 PM EDT on September 30, 2014 (GMT -0400)
HALLS BACKYARD WEATHER | Change Station
CLOSE
Current Station
Personal Weather Station
Location: SCIENCE HILL, KY
Elevation: 1076 ft
Nearby Weather Stations

Elev 1076 ft 37.19 °N, 84.62 °W | Updated 28 seconds ago

Clear
Clear
82.8 °F
Feels Like 82 °F
N
0.0
Wind Variable Wind from SE
Gusts 6.0 mph

Today
High -- | Low -- °F
--% Chance of Precip.
Yesterday
High -- | Low -- °F
Precip. -- in
7:32 AM 7:23 PM
Waxing Crescent, 39% visible
Pressure 29.96 in
Visibility 10.0 miles
Clouds Clear
Heat Index 82 °F
Dew Point 54 °F
Humidity 37%
Rainfall 0.00 in
Snow Depth Not available.
UV 7 out of 12
Pollen 4.70 out of 12
Air Quality Not available.
Flu Activity Not available.
METAR KSME 301755Z AUTO 00000KT 10SM CLR 26/08 A2996 RMK AO2

More Conditions Fewer Conditions

Pressure 29.96 in
Visibility 10.0 miles
Clouds Clear
Heat Index 82 °F
Dew Point 54 °F
Humidity 37%
Rainfall 0.00 in
Snow Depth Not available.
UV 7 out of 12
Pollen 4.70 out of 12
Air Quality Not available.
Flu Activity Not available.
METAR KSME 301755Z AUTO 00000KT 10SM CLR 26/08 A2996 RMK AO2

More Conditions Fewer Conditions

10-Day Weather Forecast

Almanac

Astronomy

Sep. 30, 2014 Rise Set
Actual Time 7:32 AM EDT 7:23 PM EDT
Civil Twilight 7:06 AM EDT 7:49 PM EDT
Nautical Twilight 6:36 AM EDT 8:19 PM EDT
Astronomical Twilight 6:06 AM EDT 8:49 PM EDT
Moon 1:34 PM EDT 11:58 PM EDT
Length of Visible Light 12h 42m
Length of Day
11h 50m
Tomorrow will be 2m 21s shorter.
Waxing Crescent, 39% of the Moon is Illuminated
Today
Waxing Crescent
Oct 1
First Quarter
Oct 8
Full
Oct 15
Last Quarter
Oct 23
New

Today's Extremes

State Highs State Lows

Community

WunderPhotos

Upload Photos

1,757,711 photos uploaded!

Nearby

Snow Depth

Station Depth Elevation
No new snow has been reported.

Earthquake Activity

City Distance Mag. Time & Date
No recent earthquake activity has been reported nearby.
Minimum magnitude displayed is 2.5.

Coastal Water Temperatures

Place Temperature
No Stations Reporting

Nearby Weather Stations